ADDS METAR Data INFO
IDs: Format: Raw Decoded Include TAF

Data at: 0928 UTC 17 Oct 2017

KHDC 170915Z AUTO 00000KT 10SM CLR 10/07 A3017 RMK AO2
KHDC 170855Z AUTO 00000KT 10SM CLR 10/07 A3016 RMK AO2
KHDC 170835Z AUTO 00000KT 10SM CLR 10/07 A3017 RMK AO2
KHDC 170815Z AUTO 01003KT 10SM CLR 10/07 A3017 RMK AO2
KHDC 170755Z AUTO 36003KT 10SM CLR 10/07 A3017 RMK AO2
KHDC 170735Z AUTO 00000KT 10SM CLR 11/07 A3017 RMK AO2
KHDC 170715Z AUTO 00000KT 10SM CLR 12/07 A3018 RMK AO2
KHDC 170655Z AUTO 00000KT 10SM CLR 12/07 A3018 RMK AO2
KHDC 170635Z AUTO 02003KT 10SM CLR 12/07 A3018 RMK AO2
KHDC 170615Z AUTO 03003KT 10SM CLR 13/07 A3018 RMK AO2
KHDC 170555Z AUTO 03003KT 10SM CLR 13/07 A3019 RMK AO2
KHDC 170535Z AUTO 02005KT 10SM CLR 13/07 A3018 RMK AO2
KHDC 170515Z AUTO 01006KT 10SM CLR 12/08 A3019 RMK AO2
KHDC 170455Z AUTO 01005KT 10SM CLR 12/08 A3019 RMK AO2
KHDC 170435Z AUTO 36006KT 10SM CLR 12/08 A3020 RMK AO2
KHDC 170415Z AUTO 35004KT 10SM CLR 12/09 A3020 RMK AO2
KHDC 170355Z AUTO 36003KT 10SM CLR 13/09 A3021 RMK AO2
KHDC 170335Z AUTO 35003KT 10SM CLR 13/10 A3021 RMK AO2
KHDC 170315Z AUTO 35003KT 10SM CLR 13/10 A3021 RMK AO2
KHDC 170255Z AUTO 00000KT 10SM CLR 13/10 A3020 RMK AO2
KHDC 170235Z AUTO 00000KT 10SM CLR 13/10 A3020 RMK AO2
KHDC 170215Z AUTO 00000KT 10SM CLR 14/10 A3019 RMK AO2
KHDC 170155Z AUTO 00000KT 10SM CLR 14/10 A3018 RMK AO2
KHDC 170135Z AUTO 00000KT 10SM CLR 15/10 A3018 RMK AO2
KHDC 170115Z AUTO 00000KT 10SM CLR 15/11 A3018 RMK AO2
KHDC 170055Z AUTO 00000KT 10SM CLR 15/10 A3016 RMK AO2
KHDC 170035Z AUTO 00000KT 10SM CLR 16/09 A3016 RMK AO2
KHDC 170015Z AUTO 00000KT 10SM CLR 16/09 A3015 RMK AO2
KHDC 162355Z AUTO 36003KT 10SM CLR 16/09 A3014 RMK AO2
KHDC 162335Z AUTO 01003KT 10SM CLR 17/08 A3014 RMK AO2
KHDC 162315Z AUTO 02003KT 10SM CLR 20/06 A3013 RMK AO2
KHDC 162255Z AUTO 01005KT 10SM CLR 20/06 A3012 RMK AO2
KHDC 162235Z AUTO 02008KT 10SM CLR 21/06 A3011 RMK AO2
KHDC 162215Z AUTO 02008KT 10SM CLR 22/06 A3010 RMK AO2
KHDC 162155Z AUTO 01008G14KT 10SM CLR 23/06 A3010 RMK AO2
KHDC 162135Z AUTO 01008KT 10SM CLR 23/06 A3010 RMK AO2
KHDC 162115Z AUTO 01011G17KT 10SM CLR 22/04 A3009 RMK AO2
KHDC 162055Z AUTO 01011G17KT 10SM CLR 23/05 A3009 RMK AO2
KHDC 162035Z AUTO 02009G14KT 10SM CLR 23/06 A3009 RMK AO2
KHDC 162015Z AUTO 02006KT 10SM CLR 23/05 A3009 RMK AO2
KHDC 161955Z AUTO 01011G19KT 10SM CLR 23/05 A3010 RMK AO2
KHDC 161935Z AUTO 02011G17KT 10SM CLR 23/05 A3010 RMK AO2
KHDC 161915Z AUTO 01011G17KT 10SM CLR 23/05 A3010 RMK AO2
KHDC 161855Z AUTO 01010G18KT 10SM CLR 23/06 A3011 RMK AO2
KHDC 161835Z AUTO 02009G16KT 10SM CLR 23/07 A3013 RMK AO2
KHDC 161815Z AUTO 02008G18KT 10SM CLR 22/07 A3014 RMK AO2
KHDC 161755Z AUTO 01013G19KT 10SM CLR 22/07 A3014 RMK AO2
KHDC 161735Z AUTO 02009G17KT 10SM CLR 22/07 A3016 RMK AO2
KHDC 161715Z AUTO 01011G18KT 10SM CLR 21/08 A3017 RMK AO2
KHDC 161655Z AUTO 01012G19KT 10SM CLR 21/08 A3018 RMK AO2
KHDC 161635Z AUTO 01013G18KT 10SM CLR 20/09 A3019 RMK AO2
KHDC 161615Z AUTO 03009G17KT 10SM CLR 20/09 A3020 RMK AO2
KHDC 161555Z AUTO 03007G16KT 10SM CLR 19/10 A3021 RMK AO2
KHDC 161535Z AUTO 02011G17KT 10SM CLR 18/10 A3020 RMK AO2
KHDC 161515Z AUTO 01012G16KT 10SM CLR 18/11 A3020 RMK AO2
KHDC 161455Z AUTO 02013G16KT 10SM SCT017 17/11 A3020 RMK AO2
KHDC 161435Z AUTO 02009G17KT 10SM BKN015 16/11 A3020 RMK AO2
KHDC 161415Z AUTO 01008G20KT 10SM OVC015 16/12 A3020 RMK AO2
KHDC 161355Z AUTO 02010G14KT 350V050 10SM OVC013 16/12 A3019 RMK AO2
KHDC 161335Z AUTO 02009G18KT 10SM OVC011 15/12 A3018 RMK AO2
KHDC 161315Z AUTO 01009KT 10SM OVC008 16/13 A3017 RMK AO2
KHDC 161255Z AUTO 01006KT 10SM OVC010 16/13 A3016 RMK AO2
KHDC 161235Z AUTO 02008KT 10SM BKN012 16/13 A3015 RMK AO2
KHDC 161215Z AUTO 01009G14KT 10SM SCT016 SCT110 16/13 A3014 RMK AO2
KHDC 161155Z AUTO 01012G20KT 10SM SCT008 BKN017 OVC100 16/13 A3014 RMK AO2 P0009
KHDC 161135Z AUTO 01013G18KT 10SM BKN008 OVC011 17/15 A3012 RMK AO2 LTG DSNT SE P0009
KHDC 161115Z AUTO 36009KT 5SM RA OVC010 17/15 A3012 RMK AO2 LTG DSNT SE AND SW P0009
KHDC 161055Z AUTO 01009KT 10SM TS OVC012 18/15 A3011 RMK AO2 LTG DSNT SW
KHDC 161035Z AUTO 36009KT 10SM OVC014 18/15 A3010 RMK AO2
KHDC 161015Z AUTO 02007KT 10SM OVC014 18/15 A3010 RMK AO2
KHDC 160955Z AUTO 01012G18KT 10SM OVC014 18/15 A3009 RMK AO2 LTG DSNT NE
KHDC 160935Z AUTO 01008G17KT 10SM OVC014 18/15 A3009 RMK AO2 LTG DSNT NE
KHDC 160915Z AUTO 36012G16KT 10SM BKN014 OVC080 18/16 A3008 RMK AO2 LTG DSNT NE
KHDC 160855Z AUTO 36011G17KT 10SM SCT014 BKN070 OVC080 19/16 A3008 RMK AO2 LTG DSNT N AND E
KHDC 160835Z AUTO 36010G16KT 10SM SCT014 BKN070 OVC080 20/16 A3008 RMK AO2 LTG DSNT N
KHDC 160815Z AUTO 36009KT 10SM SCT014 BKN021 OVC085 20/16 A3009 RMK AO2
KHDC 160755Z AUTO 35006KT 10SM SCT021 SCT070 BKN085 20/17 A3009 RMK AO2
KHDC 160735Z AUTO 35007KT 10SM CLR 20/17 A3009 RMK AO2
KHDC 160715Z AUTO 36008G15KT 10SM CLR 20/17 A3009 RMK AO2
KHDC 160655Z AUTO 36010G14KT 10SM SCT011 SCT026 20/17 A3009 RMK AO2
KHDC 160635Z AUTO 34007KT 10SM SCT011 SCT018 OVC026 21/18 A3010 RMK AO2
KHDC 160615Z AUTO 36009KT 10SM BKN024 OVC031 21/18 A3010 RMK AO2
KHDC 160555Z AUTO 01008KT 10SM -DZ SCT014 BKN024 OVC030 21/19 A3010 RMK AO2 LTG DSNT NE
KHDC 160535Z AUTO 35014G18KT 10SM -RA SCT010 OVC016 22/20 A3010 RMK AO2
KHDC 160515Z AUTO 35011KT 10SM SCT002 SCT010 OVC014 23/21 A3010 RMK AO2 LTG DSNT NW
KHDC 160455Z AUTO 35012G16KT 10SM SCT002 SCT011 BKN070 23/21 A3009 RMK AO2
KHDC 160435Z AUTO 36003KT 7SM SCT049 22/21 A3008 RMK AO2 LTG DSNT W
KHDC 160415Z AUTO 00000KT 10SM CLR 23/21 A3008 RMK AO2 LTG DSNT N
KHDC 160355Z AUTO 00000KT 10SM CLR 23/21 A3008 RMK AO2
KHDC 160335Z AUTO 00000KT 10SM SCT047 23/21 A3007 RMK AO2
KHDC 160315Z AUTO 00000KT 5SM BR SCT047 23/21 A3007 RMK AO2
KHDC 160255Z AUTO 00000KT 10SM CLR 23/22 A3007 RMK AO2
KHDC 160235Z AUTO 00000KT 10SM CLR 23/22 A3007 RMK AO2
KHDC 160215Z AUTO 00000KT 10SM CLR 23/21 A3007 RMK AO2
KHDC 160155Z AUTO 00000KT 10SM CLR 24/22 A3006 RMK AO2
KHDC 160135Z AUTO 00000KT 10SM CLR 24/22 A3005 RMK AO2
KHDC 160115Z AUTO 00000KT 10SM CLR 24/22 A3005 RMK AO2
KHDC 160055Z AUTO 00000KT 10SM CLR 24/22 A3005 RMK AO2
KHDC 160035Z AUTO 16003KT 10SM CLR 25/22 A3005 RMK AO2 LTG DSNT SE
KHDC 160015Z AUTO 00000KT 10SM CLR 25/22 A3004 RMK AO2 LTG DSNT SE
KHDC 152355Z AUTO 16003KT 10SM CLR 26/22 A3003 RMK AO2 LTG DSNT E AND SE
KHDC 152335Z AUTO 00000KT 10SM VCTS CLR 26/22 A3003 RMK AO2 LTG DSNT SE
KHDC 152315Z AUTO 00000KT 10SM SCT070 26/22 A3003 RMK AO2 LTG DSNT E AND S
KHDC 152255Z AUTO 14005KT 10SM OVC070 27/22 A3003 RMK AO2 LTG DSNT E AND S
KHDC 152235Z AUTO 00000KT 10SM BKN060 BKN080 27/22 A3002 RMK AO2 LTG DSNT S
KHDC 152215Z AUTO 14003KT 10SM SCT060 SCT070 27/22 A3002 RMK AO2 LTG DSNT E THRU S
KHDC 152155Z AUTO 16005KT 10SM SCT023 27/22 A3002 RMK AO2 LTG DSNT E AND S
KHDC 152135Z AUTO 11005KT 10SM SCT023 SCT036 SCT060 27/21 A3002 RMK AO2 LTG DSNT E THRU SW